sensor_id;sensor_type;location;lat;lon;timestamp;pressure;altitude;pressure_sealevel;temperature;humidity
68994;BME280;56054;50.968;5.816;2023-06-22T00:01:12;101007.97;;;22.92;62.28
68994;BME280;56054;50.968;5.816;2023-06-22T00:04:19;100997.13;;;22.77;63.23
68994;BME280;56054;50.968;5.816;2023-06-22T00:07:26;101004.31;;;22.82;62.58
68994;BME280;56054;50.968;5.816;2023-06-22T00:10:33;101004.03;;;22.65;62.91
68994;BME280;56054;50.968;5.816;2023-06-22T00:13:40;101005.28;;;22.88;62.52
68994;BME280;56054;50.968;5.816;2023-06-22T00:16:47;101003.75;;;22.52;62.48
68994;BME280;56054;50.968;5.816;2023-06-22T00:19:54;101002.63;;;22.39;62.79
68994;BME280;56054;50.968;5.816;2023-06-22T00:23:01;100995.84;;;22.53;62.81
68994;BME280;56054;50.968;5.816;2023-06-22T00:26:09;101005.00;;;22.71;62.19
68994;BME280;56054;50.968;5.816;2023-06-22T00:29:16;100998.59;;;22.59;62.20
68994;BME280;56054;50.968;5.816;2023-06-22T00:32:23;100997.09;;;22.74;62.02
68994;BME280;56054;50.968;5.816;2023-06-22T00:35:30;100996.75;;;22.55;62.67
68994;BME280;56054;50.968;5.816;2023-06-22T00:38:37;101001.16;;;22.55;62.50
68994;BME280;56054;50.968;5.816;2023-06-22T00:41:44;100999.34;;;22.52;62.51
68994;BME280;56054;50.968;5.816;2023-06-22T00:44:51;100993.03;;;22.46;63.55
68994;BME280;56054;50.968;5.816;2023-06-22T00:47:58;101001.25;;;22.59;62.36
68994;BME280;56054;50.968;5.816;2023-06-22T00:51:06;100992.28;;;22.53;63.50
68994;BME280;56054;50.968;5.816;2023-06-22T00:54:13;100981.31;;;22.31;63.21
68994;BME280;56054;50.968;5.816;2023-06-22T00:57:20;100988.47;;;22.37;63.55
68994;BME280;56054;50.968;5.816;2023-06-22T01:00:29;100989.53;;;22.47;63.75
68994;BME280;56054;50.968;5.816;2023-06-22T01:03:36;100977.09;;;22.42;62.90
68994;BME280;56054;50.968;5.816;2023-06-22T01:06:54;100975.09;;;22.31;63.85
68994;BME280;56054;50.968;5.816;2023-06-22T01:16:47;100968.88;;;22.29;64.43
68994;BME280;56054;50.968;5.816;2023-06-22T01:19:55;100971.09;;;22.07;64.67
68994;BME280;56054;50.968;5.816;2023-06-22T01:23:20;100972.19;;;22.17;64.55
68994;BME280;56054;50.968;5.816;2023-06-22T01:30:24;100965.06;;;22.14;65.24
68994;BME280;56054;50.968;5.816;2023-06-22T01:33:37;100951.13;;;22.23;65.41
68994;BME280;56054;50.968;5.816;2023-06-22T01:36:47;100943.78;;;22.08;65.79
68994;BME280;56054;50.968;5.816;2023-06-22T01:39:55;100949.91;;;22.06;66.52
68994;BME280;56054;50.968;5.816;2023-06-22T01:43:03;100949.06;;;22.08;66.45
68994;BME280;56054;50.968;5.816;2023-06-22T01:46:11;100946.28;;;22.00;67.30
68994;BME280;56054;50.968;5.816;2023-06-22T01:49:20;100947.41;;;22.13;66.94
68994;BME280;56054;50.968;5.816;2023-06-22T01:52:27;100943.47;;;21.93;68.91
68994;BME280;56054;50.968;5.816;2023-06-22T01:55:34;100956.81;;;21.97;68.58
68994;BME280;56054;50.968;5.816;2023-06-22T02:02:10;100946.03;;;21.88;69.41
68994;BME280;56054;50.968;5.816;2023-06-22T02:05:19;100937.69;;;21.70;70.68
68994;BME280;56054;50.968;5.816;2023-06-22T02:08:30;100938.56;;;21.69;71.05
68994;BME280;56054;50.968;5.816;2023-06-22T02:11:40;100943.72;;;21.63;71.83
68994;BME280;56054;50.968;5.816;2023-06-22T02:14:48;100940.44;;;21.73;71.60
68994;BME280;56054;50.968;5.816;2023-06-22T02:17:56;100928.88;;;21.69;72.40
68994;BME280;56054;50.968;5.816;2023-06-22T02:21:03;100931.22;;;21.54;73.77
68994;BME280;56054;50.968;5.816;2023-06-22T02:24:10;100932.91;;;21.52;73.98
68994;BME280;56054;50.968;5.816;2023-06-22T02:27:17;100928.81;;;21.66;74.59
68994;BME280;56054;50.968;5.816;2023-06-22T02:30:24;100925.41;;;21.70;74.14
68994;BME280;56054;50.968;5.816;2023-06-22T02:33:31;100924.22;;;21.56;75.66
68994;BME280;56054;50.968;5.816;2023-06-22T02:36:38;100914.16;;;21.40;77.27
68994;BME280;56054;50.968;5.816;2023-06-22T02:39:45;100917.94;;;21.51;76.73
68994;BME280;56054;50.968;5.816;2023-06-22T02:42:53;100914.72;;;21.67;76.15
68994;BME280;56054;50.968;5.816;2023-06-22T02:46:00;100913.09;;;21.33;79.15
68994;BME280;56054;50.968;5.816;2023-06-22T02:49:07;100913.44;;;21.48;78.59
68994;BME280;56054;50.968;5.816;2023-06-22T02:52:14;100902.41;;;21.28;79.97
68994;BME280;56054;50.968;5.816;2023-06-22T02:55:21;100895.50;;;21.35;79.76
68994;BME280;56054;50.968;5.816;2023-06-22T02:58:31;100903.50;;;21.36;80.09
68994;BME280;56054;50.968;5.816;2023-06-22T03:01:38;100893.28;;;21.14;81.88
68994;BME280;56054;50.968;5.816;2023-06-22T03:05:11;100881.19;;;21.25;81.08
68994;BME280;56054;50.968;5.816;2023-06-22T03:08:18;100875.03;;;21.26;81.33
68994;BME280;56054;50.968;5.816;2023-06-22T03:11:25;100871.03;;;21.03;83.36
68994;BME280;56054;50.968;5.816;2023-06-22T03:14:32;100870.31;;;21.11;83.44
68994;BME280;56054;50.968;5.816;2023-06-22T03:17:39;100874.50;;;21.40;82.30
68994;BME280;56054;50.968;5.816;2023-06-22T03:20:47;100858.09;;;21.15;83.56
68994;BME280;56054;50.968;5.816;2023-06-22T03:23:54;100861.63;;;21.15;83.88
68994;BME280;56054;50.968;5.816;2023-06-22T03:27:02;100864.13;;;21.09;84.87
68994;BME280;56054;50.968;5.816;2023-06-22T03:30:10;100866.84;;;21.12;84.54
68994;BME280;56054;50.968;5.816;2023-06-22T03:33:19;100867.03;;;21.22;85.53
68994;BME280;56054;50.968;5.816;2023-06-22T03:36:26;100865.97;;;21.13;85.87
68994;BME280;56054;50.968;5.816;2023-06-22T03:39:35;100865.75;;;21.03;86.63
68994;BME280;56054;50.968;5.816;2023-06-22T03:42:42;100867.38;;;20.98;87.59
68994;BME280;56054;50.968;5.816;2023-06-22T03:45:49;100860.84;;;21.21;85.73
68994;BME280;56054;50.968;5.816;2023-06-22T03:48:56;100859.56;;;21.02;88.28
68994;BME280;56054;50.968;5.816;2023-06-22T03:52:03;100864.03;;;21.05;87.64
68994;BME280;56054;50.968;5.816;2023-06-22T03:55:10;100852.53;;;21.04;88.39
68994;BME280;56054;50.968;5.816;2023-06-22T03:58:20;100858.66;;;21.02;88.33
68994;BME280;56054;50.968;5.816;2023-06-22T04:01:28;100858.66;;;21.02;88.59
68994;BME280;56054;50.968;5.816;2023-06-22T04:04:35;100862.16;;;21.01;89.10
68994;BME280;56054;50.968;5.816;2023-06-22T04:07:42;100862.00;;;20.93;90.16
68994;BME280;56054;50.968;5.816;2023-06-22T04:10:49;100860.66;;;21.12;88.12
68994;BME280;56054;50.968;5.816;2023-06-22T04:13:56;100865.34;;;21.25;87.91
68994;BME280;56054;50.968;5.816;2023-06-22T04:17:03;100865.44;;;21.30;87.91
68994;BME280;56054;50.968;5.816;2023-06-22T04:20:10;100862.69;;;21.25;88.45
68994;BME280;56054;50.968;5.816;2023-06-22T04:23:17;100870.47;;;21.17;88.95
68994;BME280;56054;50.968;5.816;2023-06-22T04:26:31;100865.34;;;21.25;89.20
68994;BME280;56054;50.968;5.816;2023-06-22T04:29:38;100869.75;;;21.25;88.48
68994;BME280;56054;50.968;5.816;2023-06-22T04:32:45;100871.41;;;21.21;89.66
68994;BME280;56054;50.968;5.816;2023-06-22T04:35:52;100872.13;;;21.14;90.09
68994;BME280;56054;50.968;5.816;2023-06-22T04:38:59;100883.16;;;21.34;89.11
68994;BME280;56054;50.968;5.816;2023-06-22T04:42:06;100876.03;;;21.30;88.96
68994;BME280;56054;50.968;5.816;2023-06-22T04:45:13;100886.38;;;21.19;90.39
68994;BME280;56054;50.968;5.816;2023-06-22T04:48:20;100886.50;;;21.25;90.07
68994;BME280;56054;50.968;5.816;2023-06-22T04:51:27;100890.72;;;21.56;87.08
68994;BME280;56054;50.968;5.816;2023-06-22T04:54:35;100887.00;;;21.47;88.48
68994;BME280;56054;50.968;5.816;2023-06-22T04:57:44;100890.78;;;21.59;87.13
68994;BME280;56054;50.968;5.816;2023-06-22T05:00:51;100891.19;;;21.38;90.40
68994;BME280;56054;50.968;5.816;2023-06-22T05:03:58;100889.03;;;21.21;90.95
68994;BME280;56054;50.968;5.816;2023-06-22T05:07:07;100888.34;;;21.31;90.77
68994;BME280;56054;50.968;5.816;2023-06-22T05:10:15;100881.06;;;21.58;88.60
68994;BME280;56054;50.968;5.816;2023-06-22T05:13:22;100880.53;;;21.35;90.38
68994;BME280;56054;50.968;5.816;2023-06-22T05:16:29;100879.00;;;21.44;88.76
68994;BME280;56054;50.968;5.816;2023-06-22T05:19:36;100883.22;;;21.37;90.95
68994;BME280;56054;50.968;5.816;2023-06-22T05:22:43;100878.66;;;21.30;90.82
68994;BME280;56054;50.968;5.816;2023-06-22T05:25:51;100879.00;;;21.45;90.08
68994;BME280;56054;50.968;5.816;2023-06-22T05:28:59;100880.84;;;21.48;90.27
68994;BME280;56054;50.968;5.816;2023-06-22T05:32:06;100877.25;;;21.46;90.31
68994;BME280;56054;50.968;5.816;2023-06-22T05:35:13;100887.81;;;21.46;90.03
68994;BME280;56054;50.968;5.816;2023-06-22T05:38:20;100901.25;;;21.53;89.31
68994;BME280;56054;50.968;5.816;2023-06-22T05:41:27;100903.78;;;21.49;90.60
68994;BME280;56054;50.968;5.816;2023-06-22T05:44:34;100905.25;;;21.37;90.39
68994;BME280;56054;50.968;5.816;2023-06-22T05:47:41;100903.34;;;21.30;92.39
68994;BME280;56054;50.968;5.816;2023-06-22T05:50:48;100906.13;;;21.36;92.00
68994;BME280;56054;50.968;5.816;2023-06-22T05:53:55;100897.84;;;21.21;92.46
68994;BME280;56054;50.968;5.816;2023-06-22T05:57:02;100897.16;;;21.30;92.75
68994;BME280;56054;50.968;5.816;2023-06-22T06:00:09;100899.03;;;21.34;92.59
68994;BME280;56054;50.968;5.816;2023-06-22T06:03:16;100895.56;;;21.36;92.69
68994;BME280;56054;50.968;5.816;2023-06-22T06:06:23;100912.19;;;21.32;93.50
68994;BME280;56054;50.968;5.816;2023-06-22T06:09:30;100905.66;;;21.16;94.17
68994;BME280;56054;50.968;5.816;2023-06-22T06:12:37;100897.81;;;21.20;93.26
68994;BME280;56054;50.968;5.816;2023-06-22T06:15:44;100897.72;;;21.15;93.38
68994;BME280;56054;50.968;5.816;2023-06-22T06:18:51;100899.28;;;21.07;94.16
68994;BME280;56054;50.968;5.816;2023-06-22T06:21:58;100885.63;;;21.26;93.47
68994;BME280;56054;50.968;5.816;2023-06-22T06:25:05;100888.19;;;21.23;93.95
68994;BME280;56054;50.968;5.816;2023-06-22T06:28:12;100881.25;;;21.27;94.27
68994;BME280;56054;50.968;5.816;2023-06-22T06:31:19;100881.38;;;21.33;94.53
68994;BME280;56054;50.968;5.816;2023-06-22T06:34:29;100878.13;;;21.45;94.35
68994;BME280;56054;50.968;5.816;2023-06-22T06:37:38;100870.31;;;21.49;94.19
68994;BME280;56054;50.968;5.816;2023-06-22T06:40:45;100874.84;;;21.56;94.92
68994;BME280;56054;50.968;5.816;2023-06-22T06:43:52;100868.78;;;21.62;95.88
68994;BME280;56054;50.968;5.816;2023-06-22T06:46:59;100865.47;;;21.72;96.04
68994;BME280;56054;50.968;5.816;2023-06-22T06:50:06;100864.63;;;21.75;95.59
68994;BME280;56054;50.968;5.816;2023-06-22T06:53:14;100851.50;;;21.79;95.79
68994;BME280;56054;50.968;5.816;2023-06-22T06:56:21;100855.06;;;21.82;94.70
68994;BME280;56054;50.968;5.816;2023-06-22T06:59:28;100849.81;;;21.83;93.38
68994;BME280;56054;50.968;5.816;2023-06-22T07:02:35;100847.50;;;22.01;92.77
68994;BME280;56054;50.968;5.816;2023-06-22T07:05:42;100845.22;;;22.20;91.14
68994;BME280;56054;50.968;5.816;2023-06-22T07:08:49;100836.69;;;22.38;90.46
68994;BME280;56054;50.968;5.816;2023-06-22T07:11:56;100838.53;;;22.42;89.37
68994;BME280;56054;50.968;5.816;2023-06-22T07:15:04;100820.19;;;22.54;88.99
68994;BME280;56054;50.968;5.816;2023-06-22T07:18:12;100810.34;;;22.44;88.25
68994;BME280;56054;50.968;5.816;2023-06-22T07:21:19;100811.94;;;22.94;87.11
68994;BME280;56054;50.968;5.816;2023-06-22T07:24:26;100802.38;;;23.03;84.86
68994;BME280;56054;50.968;5.816;2023-06-22T07:27:33;100800.66;;;23.05;83.83
68994;BME280;56054;50.968;5.816;2023-06-22T07:30:40;100788.47;;;23.20;83.11
68994;BME280;56054;50.968;5.816;2023-06-22T07:33:47;100776.03;;;23.16;83.65
68994;BME280;56054;50.968;5.816;2023-06-22T07:36:54;100759.03;;;22.98;83.80
68994;BME280;56054;50.968;5.816;2023-06-22T07:40:01;100765.06;;;22.88;84.35
68994;BME280;56054;50.968;5.816;2023-06-22T07:43:08;100765.41;;;23.13;84.57
68994;BME280;56054;50.968;5.816;2023-06-22T07:46:15;100766.69;;;23.47;83.80
68994;BME280;56054;50.968;5.816;2023-06-22T07:49:22;100766.19;;;23.82;82.25
68994;BME280;56054;50.968;5.816;2023-06-22T07:52:30;100773.34;;;23.90;81.90
68994;BME280;56054;50.968;5.816;2023-06-22T07:55:37;100769.66;;;23.73;82.00
68994;BME280;56054;50.968;5.816;2023-06-22T07:58:45;100766.66;;;23.45;82.57
68994;BME280;56054;50.968;5.816;2023-06-22T08:01:52;100765.25;;;23.77;82.96
68994;BME280;56054;50.968;5.816;2023-06-22T08:04:59;100763.09;;;24.35;81.13
68994;BME280;56054;50.968;5.816;2023-06-22T08:08:06;100756.91;;;24.41;80.72
68994;BME280;56054;50.968;5.816;2023-06-22T08:11:13;100755.25;;;24.49;79.99
68994;BME280;56054;50.968;5.816;2023-06-22T08:14:20;100744.75;;;24.70;79.37
68994;BME280;56054;50.968;5.816;2023-06-22T08:17:27;100742.19;;;24.86;78.82
68994;BME280;56054;50.968;5.816;2023-06-22T08:20:34;100735.84;;;24.61;79.88
68994;BME280;56054;50.968;5.816;2023-06-22T08:23:41;100743.72;;;24.47;79.33
68994;BME280;56054;50.968;5.816;2023-06-22T08:26:51;100737.47;;;24.42;81.22
68994;BME280;56054;50.968;5.816;2023-06-22T08:29:59;100738.84;;;23.90;81.08
68994;BME280;56054;50.968;5.816;2023-06-22T08:33:06;100747.75;;;23.96;81.89
68994;BME280;56054;50.968;5.816;2023-06-22T08:36:13;100743.59;;;24.31;81.02
68994;BME280;56054;50.968;5.816;2023-06-22T08:39:20;100739.91;;;24.14;80.93
68994;BME280;56054;50.968;5.816;2023-06-22T08:42:27;100730.25;;;24.19;81.95
68994;BME280;56054;50.968;5.816;2023-06-22T08:45:34;100730.19;;;24.13;82.04
68994;BME280;56054;50.968;5.816;2023-06-22T08:48:41;100718.75;;;24.25;82.62
68994;BME280;56054;50.968;5.816;2023-06-22T08:51:48;100720.56;;;24.30;81.62
68994;BME280;56054;50.968;5.816;2023-06-22T08:54:55;100710.78;;;24.23;82.49
68994;BME280;56054;50.968;5.816;2023-06-22T08:58:02;100712.63;;;24.35;83.14
68994;BME280;56054;50.968;5.816;2023-06-22T09:01:09;100711.81;;;24.44;82.84
68994;BME280;56054;50.968;5.816;2023-06-22T09:04:16;100705.69;;;24.52;81.71
68994;BME280;56054;50.968;5.816;2023-06-22T09:07:23;100700.41;;;24.60;82.24
68994;BME280;56054;50.968;5.816;2023-06-22T09:10:30;100700.44;;;24.66;82.43
68994;BME280;56054;50.968;5.816;2023-06-22T09:13:37;100709.38;;;24.79;81.53
68994;BME280;56054;50.968;5.816;2023-06-22T09:16:44;100703.06;;;24.60;83.35
68994;BME280;56054;50.968;5.816;2023-06-22T09:19:51;100694.22;;;24.61;82.55
68994;BME280;56054;50.968;5.816;2023-06-22T09:23:05;100705.72;;;24.59;83.74
68994;BME280;56054;50.968;5.816;2023-06-22T09:26:12;100692.28;;;24.35;83.41
68994;BME280;56054;50.968;5.816;2023-06-22T09:29:19;100693.19;;;24.41;84.54
68994;BME280;56054;50.968;5.816;2023-06-22T09:32:26;100691.38;;;24.32;84.57
68994;BME280;56054;50.968;5.816;2023-06-22T09:35:33;100691.50;;;24.50;84.98
68994;BME280;56054;50.968;5.816;2023-06-22T09:38:40;100696.09;;;24.87;85.10
68994;BME280;56054;50.968;5.816;2023-06-22T09:41:47;100683.59;;;24.64;84.18
68994;BME280;56054;50.968;5.816;2023-06-22T09:44:54;100688.91;;;24.61;84.20
68994;BME280;56054;50.968;5.816;2023-06-22T09:48:01;100697.84;;;24.78;84.23
68994;BME280;56054;50.968;5.816;2023-06-22T09:51:08;100719.03;;;24.63;82.78
68994;BME280;56054;50.968;5.816;2023-06-22T09:54:15;100740.25;;;24.60;82.53
68994;BME280;56054;50.968;5.816;2023-06-22T09:57:22;100743.81;;;24.65;83.05
68994;BME280;56054;50.968;5.816;2023-06-22T10:00:29;100755.28;;;24.53;84.02
68994;BME280;56054;50.968;5.816;2023-06-22T10:03:37;100761.59;;;24.71;84.93
68994;BME280;56054;50.968;5.816;2023-06-22T10:06:44;100760.63;;;24.60;86.76
68994;BME280;56054;50.968;5.816;2023-06-22T10:09:51;100766.53;;;24.20;86.48
68994;BME280;56054;50.968;5.816;2023-06-22T10:13:07;100770.16;;;24.34;87.18
68994;BME280;56054;50.968;5.816;2023-06-22T10:16:14;100763.97;;;24.32;88.07
68994;BME280;56054;50.968;5.816;2023-06-22T10:19:21;100773.88;;;24.52;88.80
68994;BME280;56054;50.968;5.816;2023-06-22T10:22:28;100777.22;;;24.29;93.27
68994;BME280;56054;50.968;5.816;2023-06-22T10:25:35;100763.94;;;24.29;96.93
68994;BME280;56054;50.968;5.816;2023-06-22T10:28:42;100770.09;;;24.25;96.87
68994;BME280;56054;50.968;5.816;2023-06-22T10:31:49;100770.69;;;23.92;98.95
68994;BME280;56054;50.968;5.816;2023-06-22T10:34:56;100769.72;;;23.81;99.15
68994;BME280;56054;50.968;5.816;2023-06-22T10:38:04;100750.13;;;23.71;100.00
68994;BME280;56054;50.968;5.816;2023-06-22T10:41:11;100734.22;;;23.71;100.00
68994;BME280;56054;50.968;5.816;2023-06-22T10:44:18;100705.78;;;23.58;100.00
68994;BME280;56054;50.968;5.816;2023-06-22T10:47:25;100665.84;;;23.39;100.00
68994;BME280;56054;50.968;5.816;2023-06-22T10:50:32;100664.16;;;23.49;100.00
68994;BME280;56054;50.968;5.816;2023-06-22T10:53:39;100671.38;;;23.64;100.00
68994;BME280;56054;50.968;5.816;2023-06-22T10:56:46;100678.41;;;23.59;100.00
68994;BME280;56054;50.968;5.816;2023-06-22T10:59:53;100678.47;;;23.66;100.00
68994;BME280;56054;50.968;5.816;2023-06-22T11:03:00;100669.75;;;23.78;100.00
68994;BME280;56054;50.968;5.816;2023-06-22T11:06:07;100674.03;;;23.67;100.00
68994;BME280;56054;50.968;5.816;2023-06-22T11:09:14;100669.84;;;23.87;100.00
68994;BME280;56054;50.968;5.816;2023-06-22T11:12:21;100654.75;;;23.80;100.00
68994;BME280;56054;50.968;5.816;2023-06-22T11:15:28;100658.91;;;23.55;100.00
68994;BME280;56054;50.968;5.816;2023-06-22T11:18:35;100644.88;;;23.65;100.00
68994;BME280;56054;50.968;5.816;2023-06-22T11:21:42;100642.41;;;23.85;100.00
68994;BME280;56054;50.968;5.816;2023-06-22T11:24:49;100630.84;;;23.79;100.00
68994;BME280;56054;50.968;5.816;2023-06-22T11:27:56;100620.19;;;23.74;100.00
68994;BME280;56054;50.968;5.816;2023-06-22T11:31:03;100616.59;;;23.69;100.00
68994;BME280;56054;50.968;5.816;2023-06-22T11:34:11;100608.63;;;23.69;100.00
68994;BME280;56054;50.968;5.816;2023-06-22T11:37:18;100598.22;;;23.90;100.00
68994;BME280;56054;50.968;5.816;2023-06-22T11:40:25;100592.63;;;23.54;100.00
68994;BME280;56054;50.968;5.816;2023-06-22T11:43:32;100588.16;;;23.49;100.00
68994;BME280;56054;50.968;5.816;2023-06-22T11:46:42;100585.44;;;23.42;100.00
68994;BME280;56054;50.968;5.816;2023-06-22T11:49:49;100579.25;;;23.41;100.00
68994;BME280;56054;50.968;5.816;2023-06-22T11:52:59;100582.00;;;23.54;100.00
68994;BME280;56054;50.968;5.816;2023-06-22T11:56:06;100583.72;;;23.50;100.00
68994;BME280;56054;50.968;5.816;2023-06-22T11:59:13;100594.56;;;23.73;100.00
68994;BME280;56054;50.968;5.816;2023-06-22T12:02:20;100593.25;;;23.28;100.00
68994;BME280;56054;50.968;5.816;2023-06-22T12:05:27;100594.16;;;23.30;100.00
68994;BME280;56054;50.968;5.816;2023-06-22T12:08:34;100598.22;;;22.96;100.00
68994;BME280;56054;50.968;5.816;2023-06-22T12:11:41;100586.81;;;23.01;100.00
68994;BME280;56054;50.968;5.816;2023-06-22T12:14:48;100577.81;;;22.87;100.00
68994;BME280;56054;50.968;5.816;2023-06-22T12:17:55;100569.06;;;22.94;100.00
68994;BME280;56054;50.968;5.816;2023-06-22T12:21:02;100571.88;;;23.08;100.00
68994;BME280;56054;50.968;5.816;2023-06-22T12:24:09;100570.03;;;22.98;100.00
68994;BME280;56054;50.968;5.816;2023-06-22T12:27:17;100556.72;;;22.95;100.00
68994;BME280;56054;50.968;5.816;2023-06-22T12:30:24;100551.38;;;22.92;100.00
68994;BME280;56054;50.968;5.816;2023-06-22T12:33:31;100548.03;;;23.08;100.00
68994;BME280;56054;50.968;5.816;2023-06-22T12:36:38;100550.44;;;22.86;100.00
68994;BME280;56054;50.968;5.816;2023-06-22T12:39:45;100552.50;;;23.15;100.00
68994;BME280;56054;50.968;5.816;2023-06-22T12:42:52;100550.81;;;23.23;100.00
68994;BME280;56054;50.968;5.816;2023-06-22T12:45:59;100542.81;;;23.19;100.00
68994;BME280;56054;50.968;5.816;2023-06-22T12:49:06;100539.00;;;22.92;100.00
68994;BME280;56054;50.968;5.816;2023-06-22T12:52:13;100532.88;;;22.96;100.00
68994;BME280;56054;50.968;5.816;2023-06-22T12:55:20;100528.38;;;22.88;100.00
68994;BME280;56054;50.968;5.816;2023-06-22T12:58:27;100524.72;;;22.75;100.00
68994;BME280;56054;50.968;5.816;2023-06-22T13:01:34;100526.19;;;22.48;100.00
68994;BME280;56054;50.968;5.816;2023-06-22T13:04:41;100530.66;;;22.52;100.00
68994;BME280;56054;50.968;5.816;2023-06-22T13:07:50;100513.56;;;22.22;100.00
68994;BME280;56054;50.968;5.816;2023-06-22T13:11:06;100510.97;;;22.29;100.00
68994;BME280;56054;50.968;5.816;2023-06-22T13:14:21;100481.06;;;22.37;100.00
68994;BME280;56054;50.968;5.816;2023-06-22T13:17:27;100462.50;;;22.33;100.00
68994;BME280;56054;50.968;5.816;2023-06-22T13:20:34;100458.31;;;22.58;100.00
68994;BME280;56054;50.968;5.816;2023-06-22T13:23:41;100461.59;;;22.29;100.00
68994;BME280;56054;50.968;5.816;2023-06-22T13:26:48;100469.59;;;22.38;100.00
68994;BME280;56054;50.968;5.816;2023-06-22T13:29:55;100471.34;;;22.35;100.00
68994;BME280;56054;50.968;5.816;2023-06-22T13:33:02;100485.47;;;22.35;100.00
68994;BME280;56054;50.968;5.816;2023-06-22T13:36:09;100484.50;;;22.27;100.00
68994;BME280;56054;50.968;5.816;2023-06-22T13:39:16;100467.69;;;22.23;100.00
68994;BME280;56054;50.968;5.816;2023-06-22T13:42:23;100474.72;;;22.20;100.00
68994;BME280;56054;50.968;5.816;2023-06-22T13:45:31;100479.78;;;22.03;100.00
68994;BME280;56054;50.968;5.816;2023-06-22T13:48:37;100450.78;;;22.12;100.00
68994;BME280;56054;50.968;5.816;2023-06-22T13:51:44;100418.09;;;22.07;100.00
68994;BME280;56054;50.968;5.816;2023-06-22T13:54:51;100415.53;;;22.16;100.00
68994;BME280;56054;50.968;5.816;2023-06-22T13:57:58;100418.19;;;22.18;100.00
68994;BME280;56054;50.968;5.816;2023-06-22T14:01:05;100427.00;;;22.15;100.00
68994;BME280;56054;50.968;5.816;2023-06-22T14:04:12;100408.38;;;22.05;100.00
68994;BME280;56054;50.968;5.816;2023-06-22T14:07:19;100384.41;;;21.94;100.00
68994;BME280;56054;50.968;5.816;2023-06-22T14:10:26;100371.97;;;21.84;100.00
68994;BME280;56054;50.968;5.816;2023-06-22T14:13:36;100361.50;;;21.24;100.00
68994;BME280;56054;50.968;5.816;2023-06-22T14:16:42;100360.72;;;21.33;100.00
68994;BME280;56054;50.968;5.816;2023-06-22T14:19:50;100368.34;;;21.11;100.00
68994;BME280;56054;50.968;5.816;2023-06-22T14:22:56;100366.47;;;21.04;100.00
68994;BME280;56054;50.968;5.816;2023-06-22T14:26:03;100343.50;;;20.97;100.00
68994;BME280;56054;50.968;5.816;2023-06-22T14:29:10;100344.25;;;20.88;100.00
68994;BME280;56054;50.968;5.816;2023-06-22T14:32:17;100327.19;;;20.66;100.00
68994;BME280;56054;50.968;5.816;2023-06-22T14:35:24;100325.31;;;20.59;100.00
68994;BME280;56054;50.968;5.816;2023-06-22T14:38:31;100322.75;;;20.64;100.00
68994;BME280;56054;50.968;5.816;2023-06-22T14:41:38;100307.72;;;20.60;100.00
68994;BME280;56054;50.968;5.816;2023-06-22T14:44:45;100297.97;;;20.56;100.00
68994;BME280;56054;50.968;5.816;2023-06-22T14:47:52;100290.66;;;20.39;100.00
68994;BME280;56054;50.968;5.816;2023-06-22T14:50:59;100289.78;;;20.40;100.00
68994;BME280;56054;50.968;5.816;2023-06-22T14:54:13;100288.75;;;20.29;100.00
68994;BME280;56054;50.968;5.816;2023-06-22T14:57:20;100308.06;;;20.28;100.00
68994;BME280;56054;50.968;5.816;2023-06-22T15:00:27;100286.06;;;20.27;100.00
68994;BME280;56054;50.968;5.816;2023-06-22T15:03:35;100261.16;;;20.10;100.00
68994;BME280;56054;50.968;5.816;2023-06-22T15:06:41;100278.75;;;20.09;100.00
68994;BME280;56054;50.968;5.816;2023-06-22T15:09:48;100265.47;;;20.05;100.00
68994;BME280;56054;50.968;5.816;2023-06-22T15:12:55;100261.84;;;19.98;100.00
68994;BME280;56054;50.968;5.816;2023-06-22T15:16:03;100280.34;;;20.01;100.00
68994;BME280;56054;50.968;5.816;2023-06-22T15:19:09;100286.38;;;19.94;100.00
68994;BME280;56054;50.968;5.816;2023-06-22T15:22:16;100305.47;;;19.81;100.00
68994;BME280;56054;50.968;5.816;2023-06-22T15:25:23;100329.88;;;19.71;100.00
68994;BME280;56054;50.968;5.816;2023-06-22T15:28:30;100292.56;;;19.52;100.00
68994;BME280;56054;50.968;5.816;2023-06-22T15:31:37;100309.41;;;19.59;100.00
68994;BME280;56054;50.968;5.816;2023-06-22T15:34:44;100303.13;;;19.52;100.00
68994;BME280;56054;50.968;5.816;2023-06-22T15:37:51;100320.69;;;19.52;100.00
68994;BME280;56054;50.968;5.816;2023-06-22T15:40:58;100363.94;;;19.61;100.00
68994;BME280;56054;50.968;5.816;2023-06-22T15:44:05;100387.22;;;19.82;100.00
68994;BME280;56054;50.968;5.816;2023-06-22T15:47:12;100396.00;;;19.81;100.00
68994;BME280;56054;50.968;5.816;2023-06-22T15:50:19;100403.16;;;19.88;100.00
68994;BME280;56054;50.968;5.816;2023-06-22T15:53:26;100411.94;;;19.87;100.00
68994;BME280;56054;50.968;5.816;2023-06-22T15:56:33;100418.72;;;19.76;100.00
68994;BME280;56054;50.968;5.816;2023-06-22T15:59:40;100401.25;;;19.81;100.00
68994;BME280;56054;50.968;5.816;2023-06-22T16:02:47;100389.69;;;19.73;100.00
68994;BME280;56054;50.968;5.816;2023-06-22T16:05:54;100385.34;;;19.75;100.00
68994;BME280;56054;50.968;5.816;2023-06-22T16:09:01;100389.28;;;19.56;100.00
68994;BME280;56054;50.968;5.816;2023-06-22T16:12:08;100390.75;;;19.42;100.00
68994;BME280;56054;50.968;5.816;2023-06-22T16:15:15;100395.41;;;19.55;100.00
68994;BME280;56054;50.968;5.816;2023-06-22T16:18:22;100383.88;;;19.50;100.00
68994;BME280;56054;50.968;5.816;2023-06-22T16:21:29;100378.63;;;19.50;100.00
68994;BME280;56054;50.968;5.816;2023-06-22T16:24:36;100387.19;;;19.40;100.00
68994;BME280;56054;50.968;5.816;2023-06-22T16:27:44;100400.41;;;19.43;100.00